createdAt,value
2023-06-25T00:00:59.206Z,20.00
2023-06-25T00:03:28.504Z,20.00
2023-06-25T00:05:57.611Z,20.00
2023-06-25T00:08:26.714Z,19.90
2023-06-25T00:10:55.961Z,19.90
2023-06-25T00:13:25.136Z,20.00
2023-06-25T00:15:54.217Z,20.00
2023-06-25T00:18:26.286Z,20.00
2023-06-25T00:20:55.816Z,20.00
2023-06-25T00:23:25.973Z,20.00
2023-06-25T00:25:55.096Z,19.90
2023-06-25T00:28:24.208Z,19.90
2023-06-25T00:30:53.386Z,19.90
2023-06-25T00:33:22.620Z,19.80
2023-06-25T00:35:51.809Z,19.80
2023-06-25T00:38:21.237Z,19.80
2023-06-25T00:40:53.201Z,19.80
2023-06-25T00:43:22.620Z,19.80
2023-06-25T00:45:52.414Z,19.80
2023-06-25T00:48:23.214Z,19.80
2023-06-25T00:50:52.406Z,19.80
2023-06-25T00:53:22.190Z,19.90
2023-06-25T00:55:52.301Z,19.90
2023-06-25T00:58:21.754Z,19.90
2023-06-25T01:00:55.801Z,20.00
2023-06-25T01:03:31.907Z,19.90
2023-06-25T01:06:31.462Z,19.90
2023-06-25T01:09:02.162Z,19.90
2023-06-25T01:11:32.341Z,19.90
2023-06-25T01:14:04.075Z,19.90
2023-06-25T01:16:33.424Z,19.90
2023-06-25T01:19:05.778Z,19.90
2023-06-25T01:21:36.594Z,19.90
2023-06-25T01:24:06.233Z,19.90
2023-06-25T01:26:35.490Z,19.90
2023-06-25T01:29:04.678Z,19.90
2023-06-25T01:31:33.810Z,19.90
2023-06-25T01:34:03.898Z,19.90
2023-06-25T01:36:33.413Z,19.90
2023-06-25T01:39:03.555Z,19.90
2023-06-25T01:41:32.686Z,19.80
2023-06-25T01:44:01.799Z,19.80
2023-06-25T01:46:31.122Z,19.80
2023-06-25T01:49:00.449Z,19.80
2023-06-25T01:51:32.531Z,19.80
2023-06-25T01:54:01.820Z,19.80
2023-06-25T01:56:30.955Z,19.80
2023-06-25T01:59:00.176Z,19.80
2023-06-25T02:01:30.467Z,19.80
2023-06-25T02:03:59.639Z,19.80
2023-06-25T02:06:28.829Z,19.80
2023-06-25T02:08:58.466Z,19.90
2023-06-25T02:11:27.617Z,19.80
2023-06-25T02:13:56.840Z,19.70
2023-06-25T02:16:26.442Z,19.80
2023-06-25T02:18:55.696Z,19.80
2023-06-25T02:21:24.746Z,19.70
2023-06-25T02:23:53.814Z,19.70
2023-06-25T02:26:22.986Z,19.60
2023-06-25T02:28:52.173Z,19.50
2023-06-25T02:31:21.364Z,19.50
2023-06-25T02:33:50.489Z,19.40
2023-06-25T02:36:19.549Z,19.40
2023-06-25T02:38:48.661Z,19.40
2023-06-25T02:41:17.740Z,19.40
2023-06-25T02:43:47.003Z,19.40
2023-06-25T02:46:16.266Z,19.30
2023-06-25T02:48:45.400Z,19.30
2023-06-25T02:51:16.986Z,19.30
2023-06-25T02:53:46.185Z,19.20
2023-06-25T02:56:15.246Z,19.20
2023-06-25T02:58:44.505Z,19.10
2023-06-25T03:01:15.198Z,19.00
2023-06-25T03:03:45.208Z,18.90
2023-06-25T03:06:14.401Z,18.80
2023-06-25T03:08:43.543Z,18.70
2023-06-25T03:11:12.926Z,18.70
2023-06-25T03:13:42.082Z,18.70
2023-06-25T03:16:11.325Z,18.70
2023-06-25T03:18:40.541Z,18.70
2023-06-25T03:21:09.637Z,18.70
2023-06-25T03:23:38.798Z,18.70
2023-06-25T03:26:08.031Z,18.70
2023-06-25T03:28:37.168Z,18.70
2023-06-25T03:31:06.418Z,18.60
2023-06-25T03:33:44.636Z,18.60
2023-06-25T03:36:13.829Z,18.60
2023-06-25T03:38:42.993Z,18.60
2023-06-25T03:41:12.171Z,18.50
2023-06-25T03:43:41.555Z,18.50
2023-06-25T03:46:12.044Z,18.50
2023-06-25T03:48:43.461Z,18.40
2023-06-25T03:51:13.164Z,18.40
2023-06-25T03:53:44.562Z,18.40
2023-06-25T03:56:13.858Z,18.40
2023-06-25T03:58:42.997Z,18.30
2023-06-25T04:01:12.141Z,18.40
2023-06-25T04:03:41.276Z,18.50
2023-06-25T04:06:10.507Z,18.60
2023-06-25T04:08:42.664Z,18.70
2023-06-25T04:11:12.073Z,18.80
2023-06-25T04:13:41.208Z,19.00
2023-06-25T04:16:10.540Z,19.10
2023-06-25T04:18:43.227Z,19.10
2023-06-25T04:21:12.458Z,19.30
2023-06-25T04:23:41.841Z,19.30
2023-06-25T04:26:11.639Z,19.40
2023-06-25T04:28:41.815Z,19.50
2023-06-25T04:31:11.383Z,19.70
2023-06-25T04:33:43.083Z,19.80
2023-06-25T04:36:15.806Z,19.80
2023-06-25T04:38:46.223Z,19.90
2023-06-25T04:41:15.481Z,20.00
2023-06-25T04:43:44.668Z,20.10
2023-06-25T04:46:14.993Z,20.10
2023-06-25T04:48:47.725Z,20.20
2023-06-25T04:51:17.425Z,20.20
2023-06-25T04:53:46.544Z,20.30
2023-06-25T04:56:16.606Z,20.40
2023-06-25T04:58:45.807Z,20.50
2023-06-25T05:01:15.013Z,20.60
2023-06-25T05:03:44.163Z,20.70
2023-06-25T05:06:13.415Z,20.80
2023-06-25T05:08:42.497Z,20.80
2023-06-25T05:11:11.621Z,20.90
2023-06-25T05:13:40.712Z,21.00
2023-06-25T05:16:09.807Z,21.00
2023-06-25T05:18:39.534Z,21.20
2023-06-25T05:21:08.789Z,21.20
2023-06-25T05:23:59.766Z,21.40
2023-06-25T05:26:29.121Z,21.50
2023-06-25T05:28:58.999Z,21.50
2023-06-25T05:31:29.351Z,21.50
2023-06-25T05:33:58.465Z,21.70
2023-06-25T05:36:30.084Z,21.80
2023-06-25T05:38:59.183Z,21.90
2023-06-25T05:41:28.273Z,21.90
2023-06-25T05:43:57.434Z,21.90
2023-06-25T05:46:26.579Z,22.00
2023-06-25T05:48:55.713Z,22.00
2023-06-25T05:51:24.789Z,22.10
2023-06-25T05:53:55.400Z,22.10
2023-06-25T05:59:37.803Z,22.20
2023-06-25T06:02:09.301Z,22.60
2023-06-25T06:04:38.622Z,22.60
2023-06-25T06:07:07.865Z,22.60
2023-06-25T06:09:37.098Z,22.70
2023-06-25T06:12:06.691Z,22.80
2023-06-25T06:14:35.996Z,22.90
2023-06-25T06:17:06.376Z,23.00
2023-06-25T06:19:35.536Z,23.10
2023-06-25T06:22:04.911Z,23.20
2023-06-25T06:24:34.158Z,23.20
2023-06-25T06:27:03.936Z,23.30
2023-06-25T06:29:33.005Z,23.40
2023-06-25T06:32:02.144Z,23.50
2023-06-25T06:34:31.489Z,23.60
2023-06-25T06:37:00.829Z,23.60
2023-06-25T06:39:30.117Z,23.70
2023-06-25T06:41:59.253Z,23.80
2023-06-25T06:44:28.383Z,23.90
2023-06-25T06:46:57.738Z,23.90
2023-06-25T06:49:26.897Z,23.90
2023-06-25T06:51:55.984Z,23.90
2023-06-25T06:54:25.117Z,23.90
2023-06-25T06:56:54.247Z,23.90
2023-06-25T06:59:23.417Z,24.00
2023-06-25T07:01:52.538Z,24.10
2023-06-25T07:04:21.641Z,24.10
2023-06-25T07:06:50.774Z,24.20
2023-06-25T07:09:25.364Z,24.20
2023-06-25T07:11:54.886Z,24.30
2023-06-25T07:14:24.045Z,24.40
2023-06-25T07:16:53.148Z,24.40
2023-06-25T07:19:22.240Z,24.40
2023-06-25T07:21:51.403Z,24.50
2023-06-25T07:24:20.507Z,24.60
2023-06-25T07:26:49.657Z,24.60
2023-06-25T07:29:19.193Z,24.70
2023-06-25T07:31:48.442Z,24.70
2023-06-25T07:34:17.635Z,24.70
2023-06-25T07:36:46.826Z,24.80
2023-06-25T07:39:27.380Z,24.80
2023-06-25T07:41:57.274Z,24.80
2023-06-25T07:47:04.941Z,24.70
2023-06-25T07:49:34.070Z,24.80
2023-06-25T07:52:04.661Z,24.80
2023-06-25T07:54:33.923Z,24.90
2023-06-25T07:57:03.061Z,25.00
2023-06-25T07:59:42.818Z,25.00
2023-06-25T08:02:20.543Z,25.10
2023-06-25T08:04:50.644Z,25.20
2023-06-25T08:07:19.930Z,25.00
2023-06-25T08:09:51.073Z,24.40
2023-06-25T08:12:23.242Z,24.10
2023-06-25T08:14:52.331Z,24.30
2023-06-25T08:17:21.563Z,24.50
2023-06-25T08:19:50.642Z,24.70
2023-06-25T08:22:19.759Z,24.90
2023-06-25T08:24:48.841Z,25.00
2023-06-25T08:27:18.014Z,25.20
2023-06-25T08:29:47.222Z,25.30
2023-06-25T08:32:16.697Z,25.20
2023-06-25T08:34:45.867Z,24.80
2023-06-25T08:37:17.251Z,24.30
2023-06-25T08:39:47.899Z,24.10
2023-06-25T08:42:17.007Z,23.90
2023-06-25T08:44:46.196Z,23.70
2023-06-25T08:47:20.145Z,23.50
2023-06-25T08:49:51.297Z,23.40
2023-06-25T08:52:22.131Z,23.40
2023-06-25T08:54:52.189Z,23.40
2023-06-25T08:57:21.416Z,23.40
2023-06-25T08:59:50.553Z,23.50
2023-06-25T09:02:20.033Z,24.00
2023-06-25T09:04:49.407Z,24.40
2023-06-25T09:07:20.621Z,24.70
2023-06-25T09:09:54.762Z,25.00
2023-06-25T09:12:27.191Z,25.20
2023-06-25T09:14:58.125Z,25.50
2023-06-25T09:17:27.406Z,25.60
2023-06-25T09:19:56.586Z,25.70
2023-06-25T09:22:25.726Z,25.80
2023-06-25T09:24:54.790Z,25.90
2023-06-25T09:27:23.890Z,26.00
2023-06-25T09:29:56.880Z,26.10
2023-06-25T09:32:26.114Z,26.20
2023-06-25T09:34:55.248Z,26.30
2023-06-25T09:37:24.446Z,26.50
2023-06-25T09:39:53.578Z,26.60
2023-06-25T09:42:22.899Z,26.70
2023-06-25T09:44:54.015Z,26.90
2023-06-25T09:47:23.330Z,26.80
2023-06-25T09:49:54.102Z,26.60
2023-06-25T09:52:25.682Z,26.70
2023-06-25T09:54:54.920Z,26.80
2023-06-25T09:57:27.186Z,26.90
2023-06-25T09:59:56.571Z,27.00
2023-06-25T10:02:25.926Z,27.10
2023-06-25T10:04:55.117Z,27.20
2023-06-25T10:07:26.042Z,27.20
2023-06-25T10:09:57.410Z,27.30
2023-06-25T10:12:26.740Z,27.40
2023-06-25T10:14:55.949Z,27.40
2023-06-25T10:17:25.552Z,27.30
2023-06-25T10:19:59.415Z,27.30
2023-06-25T10:22:29.502Z,27.40
2023-06-25T10:24:58.897Z,27.40
2023-06-25T10:27:30.496Z,27.30
2023-06-25T10:29:59.709Z,27.30
2023-06-25T10:32:30.709Z,27.20
2023-06-25T10:35:02.688Z,27.10
2023-06-25T10:37:35.451Z,26.90
2023-06-25T10:40:07.037Z,27.00
2023-06-25T10:42:40.081Z,27.10
2023-06-25T10:45:09.452Z,27.30
2023-06-25T10:47:38.831Z,27.50
2023-06-25T10:50:08.312Z,27.80
2023-06-25T10:52:38.305Z,27.90
2023-06-25T10:55:08.355Z,28.00
2023-06-25T10:57:37.778Z,28.20
2023-06-25T11:00:07.724Z,28.20
2023-06-25T11:02:37.073Z,28.10
2023-06-25T11:05:06.986Z,28.10
2023-06-25T11:07:36.181Z,28.10
2023-06-25T11:10:08.161Z,28.10
2023-06-25T11:12:37.314Z,28.20
2023-06-25T11:15:06.956Z,28.20
2023-06-25T11:17:36.066Z,28.50
2023-06-25T11:20:05.682Z,28.90
2023-06-25T11:22:43.771Z,29.20
2023-06-25T11:25:14.458Z,29.30
2023-06-25T11:27:43.706Z,29.30
2023-06-25T11:30:13.124Z,29.40
2023-06-25T11:32:42.255Z,29.30
2023-06-25T11:35:14.187Z,29.10
2023-06-25T11:37:47.760Z,28.80
2023-06-25T11:40:27.380Z,28.60
2023-06-25T11:42:57.070Z,28.60
2023-06-25T11:45:26.339Z,28.60
2023-06-25T11:47:55.665Z,28.60
2023-06-25T11:50:25.916Z,28.60
2023-06-25T11:52:56.680Z,28.70
2023-06-25T11:55:25.841Z,28.60
2023-06-25T11:57:54.978Z,28.50
2023-06-25T12:00:24.146Z,28.40
2023-06-25T12:02:53.364Z,28.60
2023-06-25T12:05:22.668Z,28.60
2023-06-25T12:07:51.878Z,28.80
2023-06-25T12:10:21.227Z,28.90
2023-06-25T12:12:51.154Z,29.00
2023-06-25T12:15:20.657Z,29.00
2023-06-25T12:17:50.190Z,29.20
2023-06-25T12:20:19.519Z,29.40
2023-06-25T12:22:48.822Z,29.60
2023-06-25T12:25:18.019Z,29.70
2023-06-25T12:27:47.117Z,29.70
2023-06-25T12:30:16.298Z,30.60
2023-06-25T12:32:45.442Z,34.40
2023-06-25T12:35:14.573Z,38.20
2023-06-25T12:37:43.688Z,40.80
2023-06-25T12:40:12.930Z,42.90
2023-06-25T12:42:42.274Z,44.20
2023-06-25T12:45:11.392Z,43.00
2023-06-25T12:47:40.538Z,44.00
2023-06-25T12:50:12.206Z,47.10
2023-06-25T12:52:41.409Z,49.30
2023-06-25T12:55:10.703Z,50.20
2023-06-25T12:57:39.842Z,49.10
2023-06-25T13:00:14.969Z,44.90
2023-06-25T13:02:46.697Z,41.90
2023-06-25T13:05:16.084Z,39.90
2023-06-25T13:07:45.213Z,40.30
2023-06-25T13:10:14.535Z,45.30
2023-06-25T13:12:43.667Z,47.30
2023-06-25T13:15:12.761Z,49.10
2023-06-25T13:17:41.913Z,51.90
2023-06-25T13:20:11.629Z,54.70
2023-06-25T13:22:40.781Z,56.80
2023-06-25T13:25:09.981Z,57.80
2023-06-25T13:27:39.119Z,59.30
2023-06-25T13:30:09.141Z,60.30
2023-06-25T13:32:38.527Z,60.70
2023-06-25T13:37:37.261Z,61.30
2023-06-25T13:40:06.919Z,61.40
2023-06-25T13:42:36.046Z,60.10
2023-06-25T13:45:05.489Z,56.50
2023-06-25T13:47:34.612Z,54.20
2023-06-25T13:50:04.362Z,49.30
2023-06-25T13:52:33.839Z,45.50
2023-06-25T13:55:03.125Z,42.80
2023-06-25T13:57:32.867Z,40.70
2023-06-25T14:00:01.996Z,39.40
2023-06-25T14:02:37.425Z,44.10
2023-06-25T14:05:10.209Z,49.60
2023-06-25T14:07:39.952Z,53.40
2023-06-25T14:10:09.454Z,55.30
2023-06-25T14:12:38.758Z,56.60
2023-06-25T14:15:08.355Z,54.40
2023-06-25T14:17:37.745Z,54.60
2023-06-25T14:20:07.316Z,56.50
2023-06-25T14:22:36.525Z,57.40
2023-06-25T14:25:05.943Z,57.60
2023-06-25T14:27:35.061Z,58.10
2023-06-25T14:30:05.103Z,56.50
2023-06-25T14:32:34.418Z,55.80
2023-06-25T14:35:03.583Z,55.50
2023-06-25T14:37:32.764Z,57.80
2023-06-25T14:40:02.077Z,59.50
2023-06-25T14:42:32.912Z,57.30
2023-06-25T14:45:06.419Z,54.60
2023-06-25T14:47:36.073Z,55.80
2023-06-25T14:50:06.229Z,57.30
2023-06-25T14:52:35.372Z,55.00
2023-06-25T14:55:04.781Z,53.20
2023-06-25T14:57:33.885Z,51.30
2023-06-25T15:00:03.714Z,50.00
2023-06-25T15:02:33.805Z,48.40
2023-06-25T15:05:03.306Z,45.40
2023-06-25T15:07:32.692Z,44.40
2023-06-25T15:10:01.974Z,42.20
2023-06-25T15:12:32.453Z,40.70
2023-06-25T15:15:02.983Z,39.30
2023-06-25T15:17:32.982Z,38.60
2023-06-25T15:20:04.885Z,40.80
2023-06-25T15:22:35.555Z,46.40
2023-06-25T15:25:05.285Z,47.20
2023-06-25T15:27:34.346Z,46.40
2023-06-25T15:30:03.753Z,49.50
2023-06-25T15:32:35.600Z,52.20
2023-06-25T15:35:08.333Z,54.20
2023-06-25T15:37:37.424Z,54.60
2023-06-25T15:40:06.911Z,51.00
2023-06-25T15:42:36.038Z,49.80
2023-06-25T15:45:05.666Z,51.80
2023-06-25T15:47:34.803Z,53.50
2023-06-25T15:50:05.099Z,53.20
2023-06-25T15:52:34.206Z,53.30
2023-06-25T15:55:03.350Z,54.20
2023-06-25T15:57:32.954Z,53.70
2023-06-25T16:00:02.127Z,53.30
2023-06-25T16:02:33.544Z,50.60
2023-06-25T16:05:03.710Z,49.00
2023-06-25T16:07:32.885Z,45.50
2023-06-25T16:10:02.066Z,41.30
2023-06-25T16:12:32.457Z,38.60
2023-06-25T16:15:01.627Z,37.20
2023-06-25T16:17:32.284Z,39.70
2023-06-25T16:20:11.685Z,39.90
2023-06-25T16:22:41.838Z,41.20
2023-06-25T16:25:10.998Z,37.80
2023-06-25T16:27:40.707Z,35.30
2023-06-25T16:30:10.369Z,33.50
2023-06-25T16:32:39.541Z,32.20
2023-06-25T16:35:08.856Z,31.30
2023-06-25T16:37:39.103Z,30.60
2023-06-25T16:40:08.762Z,30.20
2023-06-25T16:42:37.897Z,29.90
2023-06-25T16:45:07.224Z,29.70
2023-06-25T16:47:36.465Z,29.40
2023-06-25T16:50:06.138Z,29.30
2023-06-25T16:52:35.310Z,29.30
2023-06-25T16:55:04.854Z,29.30
2023-06-25T16:57:33.995Z,29.30
2023-06-25T17:00:03.645Z,30.70
2023-06-25T17:02:33.880Z,31.30
2023-06-25T17:05:03.223Z,30.60
2023-06-25T17:07:32.953Z,29.90
2023-06-25T17:10:02.287Z,29.60
2023-06-25T17:12:31.488Z,29.40
2023-06-25T17:15:00.687Z,29.30
2023-06-25T17:17:29.868Z,29.30
2023-06-25T17:19:59.194Z,29.20
2023-06-25T17:22:28.320Z,29.00
2023-06-25T17:24:57.550Z,28.90
2023-06-25T17:27:26.675Z,28.80
2023-06-25T17:29:55.776Z,28.60
2023-06-25T17:32:24.957Z,28.40
2023-06-25T17:34:54.425Z,28.20
2023-06-25T17:37:23.582Z,28.20
2023-06-25T17:39:52.723Z,28.00
2023-06-25T17:42:21.836Z,27.90
2023-06-25T17:44:50.911Z,27.80
2023-06-25T17:47:20.000Z,27.60
2023-06-25T17:49:49.928Z,27.50
2023-06-25T17:52:19.027Z,27.40
2023-06-25T17:54:48.176Z,27.20
2023-06-25T17:57:17.319Z,27.00
2023-06-25T17:59:46.491Z,26.80
2023-06-25T18:02:15.687Z,26.70
2023-06-25T18:04:45.441Z,26.70
2023-06-25T18:07:15.155Z,26.40
2023-06-25T18:09:44.583Z,26.20
2023-06-25T18:12:13.735Z,26.00
2023-06-25T18:14:42.859Z,25.80
2023-06-25T18:17:12.064Z,25.60
2023-06-25T18:19:41.170Z,25.40
2023-06-25T18:22:10.317Z,25.10
2023-06-25T18:24:39.478Z,24.90
2023-06-25T18:27:08.667Z,24.70
2023-06-25T18:29:37.936Z,24.50
2023-06-25T18:32:07.774Z,24.30
2023-06-25T18:34:37.117Z,24.20
2023-06-25T18:37:06.293Z,23.90
2023-06-25T18:39:35.559Z,23.70
2023-06-25T18:42:05.003Z,23.60
2023-06-25T18:44:34.460Z,23.40
2023-06-25T18:47:04.619Z,23.20
2023-06-25T18:49:35.459Z,23.00
2023-06-25T18:52:05.022Z,22.90
2023-06-25T18:54:34.657Z,22.70
2023-06-25T18:57:04.087Z,22.60
2023-06-25T18:59:35.067Z,22.40
2023-06-25T19:02:08.787Z,22.40
2023-06-25T19:04:38.974Z,22.30
2023-06-25T19:07:08.731Z,22.10
2023-06-25T19:09:38.122Z,22.10
2023-06-25T19:12:08.063Z,22.10
2023-06-25T19:14:37.714Z,22.10
2023-06-25T19:17:07.977Z,21.90
2023-06-25T19:19:38.435Z,21.70
2023-06-25T19:22:07.904Z,21.70
2023-06-25T19:24:37.618Z,21.40
2023-06-25T19:27:07.154Z,21.30
2023-06-25T19:29:37.007Z,21.20
2023-06-25T19:32:07.203Z,21.10
2023-06-25T19:34:36.865Z,20.90
2023-06-25T19:37:06.441Z,20.80
2023-06-25T19:39:36.006Z,20.80
2023-06-25T19:42:05.816Z,20.70
2023-06-25T19:44:35.305Z,20.60
2023-06-25T19:47:05.050Z,20.60
2023-06-25T19:49:34.684Z,20.60
2023-06-25T19:52:04.133Z,20.50
2023-06-25T19:54:33.713Z,20.40
2023-06-25T19:57:04.246Z,20.30
2023-06-25T19:59:34.009Z,20.20
2023-06-25T20:02:03.856Z,20.10
2023-06-25T20:04:33.645Z,20.00
2023-06-25T20:07:03.288Z,19.90
2023-06-25T20:09:33.698Z,19.90
2023-06-25T20:12:03.442Z,19.80
2023-06-25T20:14:32.635Z,19.80
2023-06-25T20:17:01.779Z,19.70
2023-06-25T20:19:32.797Z,19.70
2023-06-25T20:22:02.316Z,19.60
2023-06-25T20:24:32.091Z,19.50
2023-06-25T20:27:01.355Z,19.40
2023-06-25T20:29:30.588Z,19.40
2023-06-25T20:31:59.938Z,19.40
2023-06-25T20:34:29.201Z,19.40
2023-06-25T20:36:58.447Z,19.30
2023-06-25T20:39:29.592Z,19.20
2023-06-25T20:41:58.950Z,19.20
2023-06-25T20:44:34.437Z,19.10
2023-06-25T20:47:04.163Z,19.10
2023-06-25T20:49:33.795Z,19.00
2023-06-25T20:52:02.962Z,19.00
2023-06-25T20:54:32.171Z,19.00
2023-06-25T20:57:01.465Z,18.90
2023-06-25T20:59:30.646Z,18.80
2023-06-25T21:02:03.523Z,18.80
2023-06-25T21:04:32.673Z,18.80
2023-06-25T21:07:01.806Z,18.70
2023-06-25T21:09:31.089Z,18.70
2023-06-25T21:12:00.167Z,18.70
2023-06-25T21:14:29.357Z,18.70
2023-06-25T21:16:58.370Z,18.70
2023-06-25T21:19:27.543Z,18.60
2023-06-25T21:21:56.660Z,18.50
2023-06-25T21:24:25.800Z,18.50
2023-06-25T21:26:54.898Z,18.50
2023-06-25T21:29:24.064Z,18.50
2023-06-25T21:31:53.326Z,18.40
2023-06-25T21:34:22.497Z,18.40
2023-06-25T21:36:51.597Z,18.30
2023-06-25T21:39:20.756Z,18.20
2023-06-25T21:41:49.836Z,18.20
2023-06-25T21:44:18.967Z,18.20
2023-06-25T21:46:48.081Z,18.20
2023-06-25T21:49:17.293Z,18.10
2023-06-25T21:51:46.389Z,18.10
2023-06-25T21:54:15.726Z,18.00
2023-06-25T21:56:44.814Z,18.00
2023-06-25T21:59:13.966Z,17.90
2023-06-25T22:01:43.077Z,17.90
2023-06-25T22:04:12.261Z,17.80
2023-06-25T22:06:52.691Z,17.80
2023-06-25T22:09:23.469Z,17.70
2023-06-25T22:11:56.630Z,17.70
2023-06-25T22:14:25.804Z,17.60
2023-06-25T22:16:55.150Z,17.60
2023-06-25T22:19:25.228Z,17.60
2023-06-25T22:21:54.308Z,17.50
2023-06-25T22:24:23.374Z,17.50
2023-06-25T22:26:52.540Z,17.40
2023-06-25T22:29:28.531Z,17.40
2023-06-25T22:32:13.124Z,17.30
2023-06-25T22:34:42.730Z,17.30
2023-06-25T22:37:11.879Z,17.20
2023-06-25T22:39:40.951Z,17.20
2023-06-25T22:42:10.020Z,17.10
2023-06-25T22:44:39.249Z,17.10
2023-06-25T22:47:08.506Z,17.10
2023-06-25T22:49:37.606Z,17.10
2023-06-25T22:52:08.512Z,17.10
2023-06-25T22:54:37.704Z,17.10
2023-06-25T22:57:06.824Z,17.10
2023-06-25T22:59:36.429Z,17.10
2023-06-25T23:02:05.809Z,17.10
2023-06-25T23:04:35.133Z,17.00
2023-06-25T23:07:04.495Z,17.00
2023-06-25T23:09:34.694Z,17.00
2023-06-25T23:12:04.087Z,17.00
2023-06-25T23:14:33.227Z,17.00
2023-06-25T23:17:02.364Z,17.00
2023-06-25T23:19:34.473Z,17.10
2023-06-25T23:22:04.079Z,17.20
2023-06-25T23:24:39.160Z,17.20
2023-06-25T23:27:09.512Z,17.30
2023-06-25T23:29:38.956Z,17.30
2023-06-25T23:32:09.041Z,17.40
2023-06-25T23:34:39.387Z,17.40
2023-06-25T23:37:08.453Z,17.40
2023-06-25T23:39:37.967Z,17.50
2023-06-25T23:42:07.484Z,17.50
2023-06-25T23:44:36.549Z,17.50
2023-06-25T23:47:06.226Z,17.50
2023-06-25T23:49:35.341Z,17.40
2023-06-25T23:52:04.720Z,17.40
2023-06-25T23:54:34.793Z,17.30
2023-06-25T23:57:04.046Z,17.30
2023-06-25T23:59:33.210Z,17.30
